createdAt,value
2018-07-14T00:00:50.429Z,3.85
2018-07-14T00:01:56.755Z,3.60
2018-07-14T00:03:00.148Z,3.65
2018-07-14T00:04:03.555Z,3.80
2018-07-14T00:05:08.056Z,3.70
2018-07-14T00:06:13.020Z,3.77
2018-07-14T00:07:16.435Z,3.90
2018-07-14T00:08:19.823Z,4.10
2018-07-14T00:09:23.209Z,4.50
2018-07-14T00:10:31.385Z,3.67
2018-07-14T00:11:34.991Z,3.65
2018-07-14T00:12:38.390Z,3.80
2018-07-14T00:13:41.907Z,3.90
2018-07-14T00:14:44.987Z,4.45
2018-07-14T00:15:48.658Z,3.90
2018-07-14T00:16:52.119Z,4.08
2018-07-14T00:17:55.501Z,4.12
2018-07-14T00:18:58.871Z,4.60
2018-07-14T00:20:02.266Z,4.15
2018-07-14T00:21:07.798Z,3.65
2018-07-14T00:22:11.230Z,4.22
2018-07-14T00:23:14.615Z,4.72
2018-07-14T00:24:18.039Z,4.22
2018-07-14T00:25:27.344Z,3.83
2018-07-14T00:26:30.787Z,4.00
2018-07-14T00:27:34.186Z,4.15
2018-07-14T00:28:37.564Z,3.83
2018-07-14T00:29:40.955Z,3.70
2018-07-14T00:30:45.450Z,3.70
2018-07-14T00:31:48.851Z,4.00
2018-07-14T00:32:52.237Z,4.08
2018-07-14T00:33:55.627Z,3.70
2018-07-14T00:34:59.039Z,3.80
2018-07-14T00:36:03.458Z,4.10
2018-07-14T00:37:06.847Z,3.80
2018-07-14T00:38:10.240Z,3.75
2018-07-14T00:39:13.615Z,4.33
2018-07-14T00:40:18.075Z,4.10
2018-07-14T00:41:22.431Z,4.08
2018-07-14T00:42:25.827Z,4.17
2018-07-14T00:43:29.206Z,3.58
2018-07-14T00:44:32.592Z,3.70
2018-07-14T00:45:37.020Z,3.92
2018-07-14T00:46:40.432Z,4.25
2018-07-14T00:47:43.815Z,4.37
2018-07-14T00:48:47.203Z,4.28
2018-07-14T00:49:50.631Z,4.00
2018-07-14T00:50:55.044Z,4.20
2018-07-14T00:51:58.592Z,3.85
2018-07-14T00:53:02.088Z,3.90
2018-07-14T00:54:05.467Z,3.65
2018-07-14T00:55:10.603Z,4.20
2018-07-14T00:56:15.129Z,3.60
2018-07-14T00:57:18.588Z,4.08
2018-07-14T00:58:21.971Z,4.78
2018-07-14T00:59:25.348Z,3.67
2018-07-14T01:00:29.845Z,3.83
2018-07-14T01:01:33.380Z,4.08
2018-07-14T01:02:36.763Z,4.03
2018-07-14T01:03:40.148Z,4.00
2018-07-14T01:04:43.535Z,4.05
2018-07-14T01:05:47.889Z,4.00
2018-07-14T01:06:51.294Z,4.10
2018-07-14T01:07:54.683Z,4.33
2018-07-14T01:08:58.195Z,4.25
2018-07-14T01:10:01.588Z,4.45
2018-07-14T01:11:06.764Z,4.05
2018-07-14T01:12:10.195Z,4.05
2018-07-14T01:13:13.579Z,3.90
2018-07-14T01:14:16.963Z,4.05
2018-07-14T01:15:21.479Z,4.50
2018-07-14T01:16:26.494Z,3.95
2018-07-14T01:17:29.904Z,4.17
2018-07-14T01:18:33.291Z,4.72
2018-07-14T01:19:36.723Z,4.33
2018-07-14T01:20:41.204Z,4.80
2018-07-14T01:21:44.647Z,5.17
2018-07-14T01:22:48.052Z,4.53
2018-07-14T01:23:51.440Z,4.90
2018-07-14T01:24:54.838Z,4.17
2018-07-14T01:25:59.258Z,4.62
2018-07-14T01:27:02.732Z,4.92
2018-07-14T01:28:06.174Z,4.58
2018-07-14T01:29:09.547Z,4.40
2018-07-14T01:30:13.463Z,4.53
2018-07-14T01:31:17.999Z,4.78
2018-07-14T01:32:21.811Z,4.60
2018-07-14T01:33:25.200Z,3.95
2018-07-14T01:34:28.574Z,4.65
2018-07-14T01:35:33.642Z,4.40
2018-07-14T01:36:37.053Z,4.75
2018-07-14T01:37:40.455Z,4.53
2018-07-14T01:38:43.839Z,4.80
2018-07-14T01:39:47.229Z,4.72
2018-07-14T01:40:52.582Z,4.72
2018-07-14T01:41:55.979Z,4.17
2018-07-14T01:42:59.416Z,4.83
2018-07-14T01:44:02.804Z,4.67
2018-07-14T01:45:07.215Z,4.65
2018-07-14T01:46:11.725Z,4.45
2018-07-14T01:47:15.191Z,5.00
2018-07-14T01:48:18.287Z,5.03
2018-07-14T01:49:21.705Z,5.08
2018-07-14T01:50:26.166Z,5.05
2018-07-14T01:51:30.123Z,4.80
2018-07-14T01:52:33.515Z,4.90
2018-07-14T01:53:36.915Z,4.70
2018-07-14T01:54:40.324Z,4.62
2018-07-14T01:55:44.804Z,4.60
2018-07-14T01:56:48.191Z,5.12
2018-07-14T01:57:51.570Z,4.97
2018-07-14T01:58:54.972Z,5.00
2018-07-14T01:59:58.351Z,4.85
2018-07-14T02:01:02.844Z,4.92
2018-07-14T02:02:06.281Z,5.20
2018-07-14T02:03:09.663Z,5.30
2018-07-14T02:04:13.123Z,4.90
2018-07-14T02:05:17.573Z,5.22
2018-07-14T02:06:21.953Z,5.15
2018-07-14T02:07:25.370Z,4.83
2018-07-14T02:08:28.753Z,5.45
2018-07-14T02:09:32.156Z,5.12
2018-07-14T02:10:36.719Z,5.00
2018-07-14T02:11:40.143Z,4.67
2018-07-14T02:12:43.555Z,5.00
2018-07-14T02:13:47.124Z,4.62
2018-07-14T02:14:50.551Z,5.17
2018-07-14T02:15:54.925Z,5.12
2018-07-14T02:16:58.437Z,5.08
2018-07-14T02:18:01.820Z,4.85
2018-07-14T02:19:05.203Z,4.85
2018-07-14T02:20:09.287Z,4.37
2018-07-14T02:21:13.900Z,5.12
2018-07-14T02:22:17.311Z,4.72
2018-07-14T02:23:20.699Z,4.42
2018-07-14T02:24:24.187Z,4.90
2018-07-14T02:25:29.641Z,4.90
2018-07-14T02:26:32.746Z,5.03
2018-07-14T02:27:36.135Z,4.90
2018-07-14T02:28:39.504Z,4.92
2018-07-14T02:29:42.912Z,4.95
2018-07-14T02:30:47.158Z,4.97
2018-07-14T02:31:50.621Z,5.10
2018-07-14T02:32:54.002Z,4.90
2018-07-14T02:33:57.388Z,4.90
2018-07-14T02:35:00.787Z,4.50
2018-07-14T02:36:05.420Z,4.85
2018-07-14T02:37:08.559Z,4.85
2018-07-14T02:38:11.940Z,5.28
2018-07-14T02:39:15.322Z,4.65
2018-07-14T02:40:19.863Z,4.62
2018-07-14T02:41:24.379Z,4.62
2018-07-14T02:42:27.806Z,5.35
2018-07-14T02:43:31.203Z,5.20
2018-07-14T02:44:34.583Z,4.85
2018-07-14T02:45:39.245Z,5.30
2018-07-14T02:46:42.708Z,4.92
2018-07-14T02:47:46.095Z,5.12
2018-07-14T02:48:49.173Z,4.78
2018-07-14T02:49:52.555Z,4.60
2018-07-14T02:50:57.835Z,4.80
2018-07-14T02:52:01.328Z,4.22
2018-07-14T02:53:05.031Z,4.75
2018-07-14T02:54:08.412Z,5.10
2018-07-14T02:55:12.847Z,5.70
2018-07-14T02:56:16.647Z,5.15
2018-07-14T02:57:20.080Z,5.15
2018-07-14T02:58:23.475Z,4.50
2018-07-14T02:59:26.858Z,5.00
2018-07-14T03:00:31.287Z,5.20
2018-07-14T03:01:34.888Z,5.00
2018-07-14T03:02:38.301Z,5.10
2018-07-14T03:03:41.739Z,4.80
2018-07-14T03:04:45.177Z,4.92
2018-07-14T03:05:48.876Z,5.28
2018-07-14T03:06:52.459Z,4.80
2018-07-14T03:07:55.795Z,5.33
2018-07-14T03:08:59.183Z,5.10
2018-07-14T03:10:02.963Z,5.33
2018-07-14T03:11:07.565Z,4.85
2018-07-14T03:12:11.028Z,5.00
2018-07-14T03:13:14.114Z,5.33
2018-07-14T03:14:17.187Z,5.17
2018-07-14T03:15:21.761Z,4.90
2018-07-14T03:16:25.506Z,5.22
2018-07-14T03:17:28.940Z,5.45
2018-07-14T03:18:32.319Z,5.22
2018-07-14T03:19:35.985Z,5.20
2018-07-14T03:20:40.352Z,5.40
2018-07-14T03:21:43.831Z,5.62
2018-07-14T03:22:47.284Z,5.08
2018-07-14T03:23:50.663Z,5.20
2018-07-14T03:24:54.048Z,5.22
2018-07-14T03:25:58.416Z,4.97
2018-07-14T03:27:01.824Z,5.70
2018-07-14T03:28:05.147Z,5.03
2018-07-14T03:29:08.535Z,5.90
2018-07-14T03:30:13.015Z,5.53
2018-07-14T03:31:17.440Z,5.62
2018-07-14T03:32:20.864Z,5.42
2018-07-14T03:33:30.811Z,5.55
2018-07-14T03:34:34.246Z,5.83
2018-07-14T03:35:38.735Z,5.15
2018-07-14T03:36:42.195Z,5.20
2018-07-14T03:37:45.572Z,6.28
2018-07-14T03:38:48.975Z,5.70
2018-07-14T03:39:52.351Z,5.95
2018-07-14T03:40:56.768Z,5.90
2018-07-14T03:41:59.876Z,6.20
2018-07-14T03:43:03.263Z,5.70
2018-07-14T03:44:06.675Z,5.80
2018-07-14T03:45:11.762Z,5.95
2018-07-14T03:46:16.236Z,7.53
2018-07-14T03:47:19.343Z,6.08
2018-07-14T03:48:22.724Z,5.83
2018-07-14T03:49:26.123Z,5.53
2018-07-14T03:50:29.898Z,5.58
2018-07-14T03:51:32.999Z,5.90
2018-07-14T03:52:36.262Z,5.60
2018-07-14T03:53:39.648Z,5.50
2018-07-14T03:54:43.050Z,5.95
2018-07-14T03:55:46.925Z,5.40
2018-07-14T03:56:50.408Z,5.70
2018-07-14T03:57:53.787Z,6.22
2018-07-14T03:58:57.175Z,5.55
2018-07-14T04:00:00.588Z,6.72
2018-07-14T04:01:05.190Z,5.90
2018-07-14T04:02:08.623Z,6.25
2018-07-14T04:03:12.010Z,6.45
2018-07-14T04:04:15.391Z,6.70
2018-07-14T04:05:19.913Z,6.67
2018-07-14T04:06:25.029Z,6.65
2018-07-14T04:07:28.455Z,6.65
2018-07-14T04:08:31.852Z,6.72
2018-07-14T04:09:35.232Z,6.25
2018-07-14T04:10:40.062Z,6.87
2018-07-14T04:11:43.170Z,6.40
2018-07-14T04:12:46.291Z,6.60
2018-07-14T04:13:49.682Z,6.03
2018-07-14T04:14:53.112Z,5.80
2018-07-14T04:15:56.940Z,6.58
2018-07-14T04:17:00.371Z,6.45
2018-07-14T04:18:05.188Z,6.45
2018-07-14T04:19:08.576Z,6.40
2018-07-14T04:20:13.625Z,6.95
2018-07-14T04:21:18.778Z,6.80
2018-07-14T04:22:22.199Z,6.75
2018-07-14T04:23:25.584Z,6.30
2018-07-14T04:24:28.971Z,6.90
2018-07-14T04:25:33.186Z,6.20
2018-07-14T04:26:36.631Z,7.08
2018-07-14T04:27:40.042Z,6.60
2018-07-14T04:28:43.435Z,6.50
2018-07-14T04:29:46.831Z,6.78
2018-07-14T04:30:52.273Z,6.80
2018-07-14T04:31:55.706Z,6.40
2018-07-14T04:32:59.088Z,6.70
2018-07-14T04:34:02.493Z,7.33
2018-07-14T04:35:05.903Z,6.20
2018-07-14T04:36:10.245Z,6.80
2018-07-14T04:37:13.366Z,6.85
2018-07-14T04:38:16.749Z,6.62
2018-07-14T04:39:20.132Z,6.05
2018-07-14T04:40:24.561Z,6.95
2018-07-14T04:41:28.695Z,6.42
2018-07-14T04:42:32.201Z,6.20
2018-07-14T04:43:35.196Z,7.17
2018-07-14T04:44:38.266Z,7.12
2018-07-14T04:45:42.627Z,7.10
2018-07-14T04:46:46.043Z,6.83
2018-07-14T04:47:49.467Z,7.30
2018-07-14T04:48:52.867Z,7.08
2018-07-14T04:49:56.252Z,7.03
2018-07-14T04:51:00.785Z,6.45
2018-07-14T04:52:04.248Z,8.93
2018-07-14T04:53:07.701Z,7.95
2018-07-14T04:54:11.063Z,6.75
2018-07-14T04:55:17.013Z,8.30
2018-07-14T04:56:20.733Z,7.70
2018-07-14T04:57:24.180Z,7.83
2018-07-14T04:58:27.587Z,7.10
2018-07-14T04:59:30.984Z,6.87
2018-07-14T05:00:35.472Z,7.05
2018-07-14T05:01:38.949Z,6.70
2018-07-14T05:02:42.331Z,7.00
2018-07-14T05:03:45.735Z,6.53
2018-07-14T05:04:49.107Z,7.08
2018-07-14T05:05:53.606Z,6.70
2018-07-14T05:06:57.020Z,6.58
2018-07-14T05:08:00.415Z,6.60
2018-07-14T05:09:04.491Z,6.28
2018-07-14T05:10:09.008Z,6.83
2018-07-14T05:11:13.640Z,6.85
2018-07-14T05:12:17.055Z,7.10
2018-07-14T05:13:20.559Z,6.97
2018-07-14T05:14:23.959Z,6.90
2018-07-14T05:15:28.422Z,6.83
2018-07-14T05:16:31.836Z,7.35
2018-07-14T05:17:35.215Z,6.78
2018-07-14T05:18:38.317Z,6.90
2018-07-14T05:19:41.832Z,7.08
2018-07-14T05:20:46.366Z,7.28
2018-07-14T05:21:49.463Z,7.17
2018-07-14T05:22:53.604Z,7.12
2018-07-14T05:23:57.003Z,7.67
2018-07-14T05:25:00.387Z,7.35
2018-07-14T05:26:05.071Z,7.03
2018-07-14T05:27:08.488Z,6.83
2018-07-14T05:28:11.890Z,7.17
2018-07-14T05:29:15.287Z,7.50
2018-07-14T05:30:19.714Z,7.55
2018-07-14T05:31:24.473Z,7.67
2018-07-14T05:32:27.917Z,7.40
2018-07-14T05:33:31.299Z,7.80
2018-07-14T05:34:34.691Z,7.35
2018-07-14T05:35:39.707Z,7.33
2018-07-14T05:36:43.115Z,7.62
2018-07-14T05:37:46.211Z,7.08
2018-07-14T05:38:49.318Z,8.20
2018-07-14T05:39:52.707Z,7.12
2018-07-14T05:40:57.099Z,7.37
2018-07-14T05:42:00.531Z,7.45
2018-07-14T05:43:03.956Z,7.40
2018-07-14T05:44:07.386Z,7.90
2018-07-14T05:45:11.732Z,7.28
2018-07-14T05:46:16.188Z,7.80
2018-07-14T05:47:19.608Z,6.80
2018-07-14T05:48:23.091Z,7.28
2018-07-14T05:49:26.487Z,7.37
2018-07-14T05:50:30.797Z,7.75
2018-07-14T05:51:34.398Z,7.40
2018-07-14T05:52:37.820Z,7.37
2018-07-14T05:53:41.239Z,7.58
2018-07-14T05:54:44.631Z,8.15
2018-07-14T05:55:50.194Z,7.90
2018-07-14T05:56:53.607Z,7.65
2018-07-14T05:57:57.036Z,7.58
2018-07-14T05:59:00.468Z,7.65
2018-07-14T06:00:04.185Z,7.28
2018-07-14T06:01:09.069Z,8.10
2018-07-14T06:02:12.500Z,7.72
2018-07-14T06:03:15.895Z,8.28
2018-07-14T06:04:19.279Z,8.30
2018-07-14T06:05:23.652Z,8.63
2018-07-14T06:06:28.143Z,8.60
2018-07-14T06:07:31.547Z,8.20
2018-07-14T06:08:34.955Z,8.33
2018-07-14T06:09:38.341Z,7.78
2018-07-14T06:10:42.900Z,8.40
2018-07-14T06:11:46.299Z,7.45
2018-07-14T06:12:49.719Z,8.13
2018-07-14T06:13:53.119Z,8.18
2018-07-14T06:14:56.498Z,8.70
2018-07-14T06:16:00.999Z,8.20
2018-07-14T06:17:04.432Z,8.10
2018-07-14T06:18:07.839Z,7.87
2018-07-14T06:19:11.227Z,7.62
2018-07-14T06:20:15.649Z,7.62
2018-07-14T06:21:20.030Z,8.35
2018-07-14T06:22:23.150Z,8.35
2018-07-14T06:23:26.555Z,8.60
2018-07-14T06:24:29.955Z,8.45
2018-07-14T06:25:34.504Z,8.28
2018-07-14T06:26:37.971Z,8.20
2018-07-14T06:27:41.364Z,8.13
2018-07-14T06:28:44.772Z,8.55
2018-07-14T06:29:48.164Z,9.10
2018-07-14T06:30:52.547Z,9.63
2018-07-14T06:31:56.062Z,8.53
2018-07-14T06:32:59.389Z,8.68
2018-07-14T06:34:02.786Z,8.30
2018-07-14T06:35:07.895Z,8.35
2018-07-14T06:36:12.362Z,8.20
2018-07-14T06:37:15.799Z,8.03
2018-07-14T06:38:19.223Z,7.40
2018-07-14T06:39:22.599Z,8.40
2018-07-14T06:40:27.772Z,8.33
2018-07-14T06:41:31.237Z,8.78
2018-07-14T06:42:34.627Z,8.70
2018-07-14T06:43:38.060Z,8.65
2018-07-14T06:44:41.473Z,8.80
2018-07-14T06:45:45.898Z,9.08
2018-07-14T06:46:49.315Z,8.08
2018-07-14T06:47:52.722Z,10.18
2018-07-14T06:48:56.123Z,8.48
2018-07-14T06:49:59.517Z,8.00
2018-07-14T06:51:03.879Z,8.93
2018-07-14T06:52:07.491Z,8.78
2018-07-14T06:53:10.900Z,8.13
2018-07-14T06:54:14.342Z,8.50
2018-07-14T06:55:18.798Z,8.35
2018-07-14T06:56:23.380Z,8.70
2018-07-14T06:57:26.903Z,8.10
2018-07-14T06:58:30.315Z,8.70
2018-07-14T06:59:33.695Z,9.00
2018-07-14T07:00:38.001Z,7.90
2018-07-14T07:01:41.146Z,8.75
2018-07-14T07:02:44.599Z,8.40
2018-07-14T07:03:47.707Z,8.25
2018-07-14T07:04:51.099Z,8.90
2018-07-14T07:05:56.386Z,9.35
2018-07-14T07:06:59.795Z,9.93
2018-07-14T07:08:03.183Z,8.65
2018-07-14T07:09:06.595Z,8.00
2018-07-14T07:10:11.016Z,8.48
2018-07-14T07:11:15.531Z,7.80
2018-07-14T07:12:18.951Z,8.15
2018-07-14T07:13:22.370Z,8.38
2018-07-14T07:14:25.779Z,8.90
2018-07-14T07:15:30.276Z,9.20
2018-07-14T07:16:33.705Z,8.13
2018-07-14T07:17:37.280Z,9.08
2018-07-14T07:18:47.199Z,8.78
2018-07-14T07:19:50.599Z,8.98
2018-07-14T07:20:55.177Z,8.95
2018-07-14T07:21:58.597Z,9.43
2018-07-14T07:23:01.997Z,9.45
2018-07-14T07:24:05.415Z,9.40
2018-07-14T07:25:10.632Z,10.20
2018-07-14T07:26:15.242Z,9.40
2018-07-14T07:27:18.659Z,8.78
2018-07-14T07:28:22.088Z,8.83
2018-07-14T07:29:25.528Z,8.53
2018-07-14T07:30:30.594Z,8.55
2018-07-14T07:31:34.047Z,8.83
2018-07-14T07:32:37.203Z,8.93
2018-07-14T07:33:40.611Z,8.00
2018-07-14T07:34:44.044Z,8.58
2018-07-14T07:35:48.587Z,9.08
2018-07-14T07:36:52.195Z,9.10
2018-07-14T07:37:55.628Z,9.25
2018-07-14T07:38:59.347Z,9.98
2018-07-14T07:40:02.801Z,10.53
2018-07-14T07:41:07.190Z,9.70
2018-07-14T07:42:10.725Z,9.90
2018-07-14T07:43:14.098Z,9.90
2018-07-14T07:44:17.483Z,10.63
2018-07-14T07:45:21.942Z,10.98
2018-07-14T07:46:26.412Z,11.40
2018-07-14T07:47:29.816Z,10.88
2018-07-14T07:48:33.203Z,11.00
2018-07-14T07:49:36.624Z,11.50
2018-07-14T07:50:41.001Z,11.28
2018-07-14T07:51:44.107Z,10.08
2018-07-14T07:52:47.507Z,11.10
2018-07-14T07:53:50.911Z,10.10
2018-07-14T07:54:54.315Z,10.55
2018-07-14T07:55:58.700Z,10.20
2018-07-14T07:57:02.109Z,10.08
2018-07-14T07:58:05.518Z,10.43
2018-07-14T07:59:09.016Z,9.93
2018-07-14T08:00:13.504Z,10.40
2018-07-14T08:01:17.844Z,10.30
2018-07-14T08:02:21.263Z,10.32
2018-07-14T08:03:24.659Z,9.90
2018-07-14T08:04:28.063Z,10.25
2018-07-14T08:05:33.426Z,10.75
2018-07-14T08:06:36.527Z,9.90
2018-07-14T08:07:42.844Z,9.90
2018-07-14T08:08:46.294Z,10.43
2018-07-14T08:09:49.657Z,10.18
2018-07-14T08:10:53.953Z,9.43
2018-07-14T08:11:57.392Z,10.08
2018-07-14T08:13:00.808Z,11.65
2018-07-14T08:14:04.606Z,10.25
2018-07-14T08:15:15.327Z,9.88
2018-07-14T08:16:20.290Z,9.55
2018-07-14T08:17:23.718Z,9.35
2018-07-14T08:18:27.115Z,9.55
2018-07-14T08:19:30.538Z,9.45
2018-07-14T08:20:35.031Z,8.63
2018-07-14T08:21:38.476Z,9.50
2018-07-14T08:22:41.935Z,9.58
2018-07-14T08:23:45.296Z,8.50
2018-07-14T08:24:48.735Z,9.10
2018-07-14T08:25:52.536Z,9.73
2018-07-14T08:26:55.959Z,10.58
2018-07-14T08:27:59.367Z,9.35
2018-07-14T08:29:02.762Z,8.55
2018-07-14T08:30:07.432Z,9.30
2018-07-14T08:31:11.876Z,9.90
2018-07-14T08:32:15.318Z,9.28
2018-07-14T08:33:18.783Z,9.33
2018-07-14T08:34:22.187Z,9.30
2018-07-14T08:35:26.728Z,10.08
2018-07-14T08:36:30.413Z,9.55
2018-07-14T08:37:33.803Z,9.18
2018-07-14T08:38:37.196Z,8.50
2018-07-14T08:39:40.621Z,9.70
2018-07-14T08:40:45.224Z,9.60
2018-07-14T08:41:48.656Z,8.80
2018-07-14T08:42:52.070Z,8.98
2018-07-14T08:44:02.031Z,9.53
2018-07-14T08:45:07.631Z,9.50
2018-07-14T08:46:12.230Z,9.30
2018-07-14T08:47:15.648Z,8.95
2018-07-14T08:48:19.064Z,8.43
2018-07-14T08:49:22.477Z,6.70
2018-07-14T08:50:27.500Z,8.83
2018-07-14T08:51:30.941Z,8.30
2018-07-14T08:52:34.363Z,7.42
2018-07-14T08:53:37.755Z,6.97
2018-07-14T08:54:41.171Z,8.30
2018-07-14T08:55:45.628Z,8.35
2018-07-14T08:56:49.048Z,7.30
2018-07-14T08:57:52.435Z,8.05
2018-07-14T08:58:55.514Z,7.80
2018-07-14T08:59:58.939Z,7.05
2018-07-14T09:01:03.326Z,9.25
2018-07-14T09:02:06.743Z,8.70
2018-07-14T09:03:10.136Z,8.35
2018-07-14T09:04:13.543Z,8.33
2018-07-14T09:05:18.076Z,8.70
2018-07-14T09:06:22.406Z,9.38
2018-07-14T09:07:25.842Z,7.72
2018-07-14T09:08:29.229Z,8.90
2018-07-14T09:09:32.647Z,9.50
2018-07-14T09:10:37.002Z,9.70
2018-07-14T09:11:40.126Z,9.18
2018-07-14T09:12:43.515Z,9.13
2018-07-14T09:13:46.936Z,9.25
2018-07-14T09:14:50.344Z,9.03
2018-07-14T09:15:55.015Z,7.53
2018-07-14T09:16:58.504Z,9.38
2018-07-14T09:18:01.900Z,9.25
2018-07-14T09:19:05.307Z,8.55
2018-07-14T09:20:09.880Z,8.55
2018-07-14T09:21:14.441Z,9.33
2018-07-14T09:22:17.868Z,8.88
2018-07-14T09:23:21.261Z,9.48
2018-07-14T09:24:24.674Z,7.70
2018-07-14T09:25:29.179Z,8.70
2018-07-14T09:26:32.606Z,8.45
2018-07-14T09:27:36.020Z,6.90
2018-07-14T09:28:39.395Z,8.88
2018-07-14T09:29:42.784Z,8.43
2018-07-14T09:30:47.276Z,8.03
2018-07-14T09:31:50.695Z,7.90
2018-07-14T09:32:54.088Z,9.20
2018-07-14T09:33:57.172Z,9.25
2018-07-14T09:35:00.595Z,7.33
2018-07-14T09:36:05.013Z,8.35
2018-07-14T09:37:08.435Z,8.28
2018-07-14T09:38:11.808Z,8.55
2018-07-14T09:39:15.205Z,7.58
2018-07-14T09:40:19.639Z,9.58
2018-07-14T09:41:23.938Z,9.75
2018-07-14T09:42:27.030Z,9.30
2018-07-14T09:43:30.426Z,8.90
2018-07-14T09:44:33.865Z,8.63
2018-07-14T09:45:38.357Z,8.65
2018-07-14T09:46:41.776Z,10.10
2018-07-14T09:47:45.191Z,9.15
2018-07-14T09:48:48.251Z,9.00
2018-07-14T09:49:51.652Z,9.78
2018-07-14T09:50:56.179Z,9.00
2018-07-14T09:51:59.595Z,8.25
2018-07-14T09:53:02.995Z,8.00
2018-07-14T09:54:12.831Z,7.87
2018-07-14T09:55:17.322Z,9.05
2018-07-14T09:56:21.712Z,8.25
2018-07-14T09:57:25.175Z,8.85
2018-07-14T09:58:28.724Z,8.95
2018-07-14T09:59:32.124Z,8.53
2018-07-14T10:00:36.788Z,9.23
2018-07-14T10:01:40.200Z,7.80
2018-07-14T10:02:43.591Z,8.18
2018-07-14T10:03:46.983Z,8.30
2018-07-14T10:04:50.391Z,7.53
2018-07-14T10:05:54.234Z,7.78
2018-07-14T10:06:57.663Z,8.23
2018-07-14T10:08:01.094Z,10.08
2018-07-14T10:09:05.059Z,8.78
2018-07-14T10:10:08.640Z,9.68
2018-07-14T10:11:13.005Z,8.48
2018-07-14T10:12:16.419Z,8.78
2018-07-14T10:13:19.869Z,8.05
2018-07-14T10:14:23.238Z,8.80
2018-07-14T10:15:27.172Z,8.63
2018-07-14T10:16:30.597Z,8.83
2018-07-14T10:17:34.025Z,8.15
2018-07-14T10:18:37.399Z,7.60
2018-07-14T10:19:40.502Z,7.72
2018-07-14T10:20:45.329Z,8.23
2018-07-14T10:21:48.775Z,8.48
2018-07-14T10:22:51.855Z,7.83
2018-07-14T10:23:54.938Z,7.83
2018-07-14T10:24:58.044Z,7.90
2018-07-14T10:26:02.558Z,8.28
2018-07-14T10:27:06.012Z,7.22
2018-07-14T10:28:09.107Z,7.35
2018-07-14T10:29:12.246Z,6.62
2018-07-14T10:30:16.453Z,6.72
2018-07-14T10:31:21.458Z,6.50
2018-07-14T10:32:24.883Z,7.17
2018-07-14T10:33:28.008Z,7.17
2018-07-14T10:34:31.440Z,7.42
2018-07-14T10:35:36.262Z,7.55
2018-07-14T10:36:39.691Z,6.25
2018-07-14T10:37:43.091Z,7.37
2018-07-14T10:38:46.527Z,6.85
2018-07-14T10:39:49.911Z,6.10
2018-07-14T10:40:54.522Z,6.50
2018-07-14T10:41:57.949Z,6.62
2018-07-14T10:43:01.372Z,6.05
2018-07-14T10:44:04.769Z,6.58
2018-07-14T10:45:09.271Z,7.60
2018-07-14T10:46:13.256Z,6.95
2018-07-14T10:47:16.664Z,7.28
2018-07-14T10:48:20.064Z,7.60
2018-07-14T10:49:23.452Z,7.17
2018-07-14T10:50:27.952Z,7.80
2018-07-14T10:51:31.077Z,6.78
2018-07-14T10:52:34.482Z,6.42
2018-07-14T10:53:37.883Z,7.67
2018-07-14T10:54:41.283Z,7.05
2018-07-14T10:55:45.594Z,7.08
2018-07-14T10:56:49.007Z,7.60
2018-07-14T10:57:52.411Z,9.10
2018-07-14T10:58:55.798Z,8.63
2018-07-14T10:59:59.215Z,8.68
2018-07-14T11:01:03.991Z,8.53
2018-07-14T11:02:07.543Z,7.45
2018-07-14T11:03:10.932Z,7.35
2018-07-14T11:04:14.331Z,6.75
2018-07-14T11:05:18.653Z,7.40
2018-07-14T11:06:23.142Z,6.10
2018-07-14T11:07:26.251Z,7.50
2018-07-14T11:08:35.817Z,6.50
2018-07-14T11:09:39.215Z,7.12
2018-07-14T11:10:43.538Z,6.42
2018-07-14T11:11:46.695Z,6.97
2018-07-14T11:12:50.096Z,7.03
2018-07-14T11:13:53.487Z,8.43
2018-07-14T11:14:56.890Z,7.80
2018-07-14T11:16:01.421Z,6.40
2018-07-14T11:17:05.011Z,6.37
2018-07-14T11:18:08.411Z,7.40
2018-07-14T11:19:11.833Z,6.78
2018-07-14T11:20:16.118Z,6.78
2018-07-14T11:21:20.717Z,6.72
2018-07-14T11:22:24.258Z,7.35
2018-07-14T11:23:27.648Z,9.23
2018-07-14T11:24:31.031Z,7.42
2018-07-14T11:25:36.272Z,7.45
2018-07-14T11:26:39.714Z,5.97
2018-07-14T11:27:43.104Z,7.12
2018-07-14T11:28:46.545Z,6.45
2018-07-14T11:29:49.984Z,7.20
2018-07-14T11:30:55.466Z,6.97
2018-07-14T11:32:05.372Z,6.17
2018-07-14T11:33:08.763Z,7.10
2018-07-14T11:34:12.158Z,6.67
2018-07-14T11:35:16.273Z,6.75
2018-07-14T11:36:21.642Z,7.22
2018-07-14T11:37:25.087Z,7.12
2018-07-14T11:38:28.468Z,6.97
2018-07-14T11:39:31.871Z,7.20
2018-07-14T11:40:36.382Z,7.10
2018-07-14T11:41:39.819Z,5.83
2018-07-14T11:42:43.217Z,5.87
2018-07-14T11:43:46.600Z,5.90
2018-07-14T11:44:49.995Z,6.35
2018-07-14T11:45:54.788Z,6.42
2018-07-14T11:46:58.243Z,6.28
2018-07-14T11:48:01.388Z,5.87
2018-07-14T11:49:04.728Z,6.40
2018-07-14T11:50:08.226Z,6.40
2018-07-14T11:51:12.790Z,5.75
2018-07-14T11:52:15.913Z,6.10
2018-07-14T11:53:19.536Z,6.28
2018-07-14T11:54:22.999Z,7.08
2018-07-14T11:55:27.703Z,7.78
2018-07-14T11:56:31.127Z,5.97
2018-07-14T11:57:34.527Z,6.00
2018-07-14T11:58:37.945Z,6.78
2018-07-14T11:59:41.035Z,8.98
2018-07-14T12:00:45.571Z,7.97
2018-07-14T12:01:49.106Z,7.08
2018-07-14T12:02:52.507Z,7.75
2018-07-14T12:03:55.603Z,7.65
2018-07-14T12:04:58.999Z,6.97
2018-07-14T12:06:03.457Z,6.78
2018-07-14T12:07:06.618Z,6.90
2018-07-14T12:08:10.116Z,7.25
2018-07-14T12:09:13.560Z,8.18
2018-07-14T12:10:18.968Z,7.55
2018-07-14T12:11:23.319Z,7.40
2018-07-14T12:12:26.763Z,7.20
2018-07-14T12:13:30.208Z,7.03
2018-07-14T12:14:33.615Z,6.65
2018-07-14T12:15:38.496Z,3.95
2018-07-14T12:16:41.927Z,6.97
2018-07-14T12:17:45.335Z,6.67
2018-07-14T12:18:48.442Z,6.60
2018-07-14T12:19:51.829Z,5.97
2018-07-14T12:20:56.337Z,5.62
2018-07-14T12:21:59.738Z,6.17
2018-07-14T12:23:03.139Z,7.10
2018-07-14T12:24:06.855Z,6.65
2018-07-14T12:25:11.112Z,6.78
2018-07-14T12:26:15.667Z,6.60
2018-07-14T12:27:18.795Z,6.25
2018-07-14T12:28:25.199Z,7.50
2018-07-14T12:29:28.597Z,8.08
2018-07-14T12:30:33.402Z,6.80
2018-07-14T12:31:36.830Z,7.67
2018-07-14T12:32:39.922Z,6.75
2018-07-14T12:33:43.074Z,6.15
2018-07-14T12:34:46.467Z,5.58
2018-07-14T12:35:50.449Z,6.42
2018-07-14T12:36:53.565Z,7.30
2018-07-14T12:37:56.651Z,7.20
2018-07-14T12:39:00.051Z,6.53
2018-07-14T12:40:03.972Z,6.62
2018-07-14T12:41:08.414Z,6.08
2018-07-14T12:42:11.502Z,6.45
2018-07-14T12:43:14.626Z,7.12
2018-07-14T12:44:18.023Z,7.20
2018-07-14T12:45:22.663Z,7.05
2018-07-14T12:46:26.581Z,6.10
2018-07-14T12:47:30.020Z,6.53
2018-07-14T12:48:33.407Z,6.28
2018-07-14T12:49:36.811Z,5.75
2018-07-14T12:50:41.569Z,6.80
2018-07-14T12:51:44.976Z,6.55
2018-07-14T12:52:48.391Z,6.60
2018-07-14T12:53:51.876Z,6.00
2018-07-14T12:54:55.211Z,6.90
2018-07-14T12:55:59.058Z,6.45
2018-07-14T12:57:02.476Z,5.03
2018-07-14T12:58:05.980Z,6.62
2018-07-14T12:59:09.389Z,6.03
2018-07-14T13:00:14.114Z,6.45
2018-07-14T13:01:18.707Z,6.80
2018-07-14T13:02:22.621Z,5.97
2018-07-14T13:03:26.088Z,6.50
2018-07-14T13:04:29.186Z,6.80
2018-07-14T13:05:33.635Z,4.77
2018-07-14T13:06:37.085Z,6.60
2018-07-14T13:07:40.498Z,6.80
2018-07-14T13:08:43.876Z,6.63
2018-07-14T13:09:47.275Z,5.80
2018-07-14T13:10:51.767Z,6.42
2018-07-14T13:11:55.197Z,6.33
2018-07-14T13:12:58.588Z,6.03
2018-07-14T13:14:02.015Z,5.40
2018-07-14T13:15:06.977Z,6.78
2018-07-14T13:16:11.416Z,5.28
2018-07-14T13:17:14.947Z,5.50
2018-07-14T13:18:18.396Z,5.80
2018-07-14T13:19:21.475Z,6.80
2018-07-14T13:20:26.520Z,6.70
2018-07-14T13:21:30.316Z,6.53
2018-07-14T13:22:33.707Z,6.17
2018-07-14T13:23:37.120Z,6.05
2018-07-14T13:24:40.515Z,6.28
2018-07-14T13:25:45.100Z,5.33
2018-07-14T13:26:48.612Z,6.00
2018-07-14T13:27:52.004Z,5.35
2018-07-14T13:28:55.407Z,4.90
2018-07-14T13:29:58.809Z,6.20
2018-07-14T13:31:02.652Z,5.05
2018-07-14T13:32:06.384Z,5.10
2018-07-14T13:33:09.823Z,5.58
2018-07-14T13:34:13.247Z,5.20
2018-07-14T13:35:18.573Z,5.08
2018-07-14T13:36:22.770Z,5.03
2018-07-14T13:37:26.259Z,6.08
2018-07-14T13:38:29.682Z,6.20
2018-07-14T13:39:33.085Z,5.22
2018-07-14T13:40:36.970Z,4.83
2018-07-14T13:41:40.383Z,5.25
2018-07-14T13:42:43.444Z,4.87
2018-07-14T13:43:46.847Z,5.10
2018-07-14T13:44:50.291Z,5.30
2018-07-14T13:45:54.497Z,4.50
2018-07-14T13:46:57.891Z,5.30
2018-07-14T13:48:01.283Z,5.13
2018-07-14T13:49:04.692Z,4.70
2018-07-14T13:50:09.139Z,5.80
2018-07-14T13:51:13.481Z,5.47
2018-07-14T13:52:16.584Z,5.40
2018-07-14T13:53:19.998Z,5.20
2018-07-14T13:54:23.387Z,5.80
2018-07-14T13:55:27.848Z,5.00
2018-07-14T13:56:33.522Z,4.63
2018-07-14T13:57:36.943Z,4.27
2018-07-14T13:58:40.351Z,5.40
2018-07-14T13:59:43.727Z,5.30
2018-07-14T14:00:48.125Z,9.05
2018-07-14T14:01:51.531Z,5.00
2018-07-14T14:02:54.913Z,4.07
2018-07-14T14:03:58.335Z,8.07
2018-07-14T14:05:01.456Z,5.60
2018-07-14T14:06:05.990Z,4.80
2018-07-14T14:07:09.395Z,4.57
2018-07-14T14:08:12.779Z,4.17